NCAR-RAP Real-Time Weather Data

Output produced by METARs form (17 December 2018  14:14 UTC)
found at http://weather.rap.ucar.edu/surface/
 
RJCW 170900Z 29010KT 9999 FEW020 SCT030 BKN040 M00/M05 Q1003
RJCW 170800Z 29011KT 9999 FEW020 SCT030 BKN040 00/M06 Q1003
RJCW 170700Z 29013KT 9999 FEW020 SCT030 BKN040 01/M04 Q1003
RJCW 170600Z 20006KT 180V260 9999 FEW015 SCT020 BKN030 M00/M03 Q1003
RJCW 170534Z 25010KT 5000 -SHSN FEW015 SCT025 BKN035 M00/M03 Q1003 RMK 2ST015 4CU025 6CU035 A2963
RJCW 170500Z 28013KT 3200 -SHSN FEW010 SCT020 BKN040 M00/M02 Q1003
RJCW 170435Z 26009KT 1400 R08/1500VP2000N -SHSN FEW005 BKN010 BKN015 M00/M02 Q1003 RMK 1ST005 5ST010 7ST015 A2962
RJCW 170424Z 26010KT 2300 -SHSN FEW005 BKN015 BKN020 M00/M02 Q1003 RMK 1ST005 5ST015 7CU020 A2963
RJCW 170419Z 26010KT 3000 -SHSN FEW005 BKN020 BKN030 00/M03 Q1003 RMK 1ST005 5CU020 7CU030 A2962
RJCW 170415Z 26011KT 4900 -SHSN FEW005 BKN020 BKN030 00/M03 Q1003 RMK 1ST005 5CU020 7CU030 A2962
RJCW 170400Z 27010KT 5000 -SHSN FEW005 SCT020 BKN030 00/M03 Q1003
RJCW 170343Z 27011KT 4900 -SHSN FEW005 SCT015 BKN025 01/M03 Q1003 RMK 1ST005 3ST015 7CU025 A2962
RJCW 170300Z 26005KT 230V300 9999 FEW015 SCT020 BKN030 01/M04 Q1003
RJCW 170200Z 35009KT 9999 VCSH FEW010 BKN020 BKN040 01/M02 Q1004
RJCW 170105Z 32010KT 6000 -SHSN FEW005 SCT020 BKN030 01/M03 Q1004 RMK 1ST005 3CU020 6CU030 A2967
RJCW 170100Z 29009KT 4000 -SHSN FEW005 SCT015 BKN030 01/M03 Q1004
RJCW 170027Z 28009KT 6000 -SHSN FEW010 SCT015 BKN025 01/M02 Q1004 RMK 1ST010 3ST015 7CU025 A2967
RJCW 170000Z 21007KT 4000 -SHSN FEW006 SCT015 BKN020 M00/M01 Q1004
RJCW 162330Z 21007KT 3500 -SHSN FEW006 SCT015 BKN020 M00/M01 Q1004
RJCW 160900Z 20009KT 9999 FEW025 SCT040 BKN050 02/M01 Q1009
RJCW 160800Z 20008KT 9999 FEW025 BKN050 BKN100 02/M01 Q1010
RJCW 160700Z 23010KT 9999 FEW020 SCT030 BKN060 03/M02 Q1010
RJCW 160600Z 22009KT 9999 FEW020 SCT040 BKN060 03/M02 Q1010
RJCW 160500Z 21010KT 9999 -SHRA FEW015 BKN020 BKN030 02/M01 Q1011
RJCW 160400Z 23015KT 9999 -SHSN FEW020 SCT030 BKN040 02/M02 Q1011
RJCW 160300Z 24016KT 9999 FEW030 BKN050 03/M03 Q1012
RJCW 160200Z 25017KT 9999 BKN050 03/M04 Q1013
RJCW 160100Z 25019KT 9999 SCT040 BKN100 03/M04 Q1013
RJCW 160000Z 25018KT 9999 BKN040 02/M05 Q1014
RJCW 152330Z 24020KT 9999 BKN040 02/M05 Q1014
RJCW 150900Z 24009KT 9999 -SHSN FEW020 BKN030 M01/M05 Q1019
RJCW 150800Z 26011KT 9999 FEW020 BKN035 M02/M08 Q1019
RJCW 150700Z 26016KT 9999 FEW020 BKN030 M03/M09 Q1020
RJCW 150600Z 25016KT 9999 VCSH FEW020 BKN030 M03/M08 Q1020
RJCW 150500Z 27015KT 9999 FEW020 BKN030 M03/M08 Q1019
RJCW 150400Z 27015KT 9999 -SHSN FEW020 BKN030 M03/M09 Q1019
RJCW 150300Z 28015KT 9999 -SHSN FEW020 BKN030 M03/M08 Q1020